createdAt,value
2018-09-06T00:01:40.539Z,16.40
2018-09-06T00:04:09.284Z,16.40
2018-09-06T00:06:38.034Z,16.40
2018-09-06T00:09:08.709Z,16.50
2018-09-06T00:11:37.509Z,16.50
2018-09-06T00:14:06.307Z,16.50
2018-09-06T00:16:35.215Z,16.40
2018-09-06T00:19:03.978Z,16.40
2018-09-06T00:21:32.833Z,16.20
2018-09-06T00:24:01.488Z,16.20
2018-09-06T00:26:30.185Z,16.10
2018-09-06T00:28:58.849Z,16.00
2018-09-06T00:31:27.519Z,16.00
2018-09-06T00:33:56.240Z,16.00
2018-09-06T00:36:24.990Z,16.00
2018-09-06T00:38:53.756Z,16.00
2018-09-06T00:41:22.591Z,15.80
2018-09-06T00:43:51.263Z,15.70
2018-09-06T00:46:19.920Z,15.70
2018-09-06T00:48:48.623Z,15.70
2018-09-06T00:51:17.385Z,15.70
2018-09-06T00:53:46.160Z,15.60
2018-09-06T00:56:14.949Z,15.60
2018-09-06T00:58:43.775Z,15.50
2018-09-06T01:01:12.535Z,15.50
2018-09-06T01:03:41.288Z,15.60
2018-09-06T01:06:10.008Z,15.50
2018-09-06T01:08:38.791Z,15.50
2018-09-06T01:11:07.588Z,15.70
2018-09-06T01:13:36.444Z,15.70
2018-09-06T01:16:05.391Z,15.80
2018-09-06T01:18:34.068Z,15.70
2018-09-06T01:21:02.768Z,15.80
2018-09-06T01:23:31.435Z,15.80
2018-09-06T01:26:00.108Z,15.70
2018-09-06T01:28:28.715Z,15.70
2018-09-06T01:30:57.491Z,15.80
2018-09-06T01:33:26.280Z,15.80
2018-09-06T01:36:00.726Z,15.80
2018-09-06T01:38:32.737Z,15.70
2018-09-06T01:41:01.570Z,15.70
2018-09-06T01:43:30.451Z,15.60
2018-09-06T01:45:59.250Z,15.60
2018-09-06T01:48:28.121Z,15.50
2018-09-06T01:50:57.188Z,15.40
2018-09-06T01:53:25.915Z,15.30
2018-09-06T01:55:54.730Z,15.20
2018-09-06T01:58:23.478Z,15.20
2018-09-06T02:00:52.268Z,15.10
2018-09-06T02:03:21.131Z,15.10
2018-09-06T02:05:50.445Z,15.10
2018-09-06T02:08:19.188Z,15.20
2018-09-06T02:10:47.943Z,15.20
2018-09-06T02:13:16.805Z,15.30
2018-09-06T02:15:45.661Z,15.30
2018-09-06T02:18:14.438Z,15.40
2018-09-06T02:20:43.211Z,15.30
2018-09-06T02:23:11.856Z,15.40
2018-09-06T02:25:41.371Z,15.30
2018-09-06T02:28:10.384Z,15.30
2018-09-06T02:30:39.203Z,15.30
2018-09-06T02:33:07.976Z,15.30
2018-09-06T02:35:36.719Z,15.30
2018-09-06T02:38:05.683Z,15.20
2018-09-06T02:40:39.433Z,15.20
2018-09-06T02:43:10.595Z,15.10
2018-09-06T02:45:39.915Z,15.10
2018-09-06T02:48:08.751Z,15.00
2018-09-06T02:50:43.088Z,14.90
2018-09-06T02:53:12.190Z,14.90
2018-09-06T02:55:41.195Z,14.90
2018-09-06T02:58:09.978Z,14.80
2018-09-06T03:00:39.056Z,14.80
2018-09-06T03:03:07.697Z,14.80
2018-09-06T03:05:36.363Z,14.80
2018-09-06T03:08:05.137Z,14.80
2018-09-06T03:10:41.987Z,14.80
2018-09-06T03:13:10.715Z,14.70
2018-09-06T03:15:39.365Z,14.70
2018-09-06T03:18:08.091Z,14.60
2018-09-06T03:20:36.836Z,14.40
2018-09-06T03:23:05.985Z,14.30
2018-09-06T03:25:34.689Z,14.20
2018-09-06T03:28:03.920Z,14.20
2018-09-06T03:30:32.824Z,14.10
2018-09-06T03:33:01.566Z,14.20
2018-09-06T03:35:30.335Z,14.20
2018-09-06T03:37:59.275Z,14.30
2018-09-06T03:40:28.206Z,14.30
2018-09-06T03:42:57.098Z,14.30
2018-09-06T03:45:25.976Z,14.20
2018-09-06T03:47:54.698Z,14.10
2018-09-06T03:50:23.531Z,14.10
2018-09-06T03:52:52.313Z,14.10
2018-09-06T03:55:21.198Z,14.10
2018-09-06T03:57:50.050Z,14.10
2018-09-06T04:00:18.933Z,14.10
2018-09-06T04:02:47.871Z,14.10
2018-09-06T04:05:16.783Z,14.10
2018-09-06T04:07:45.511Z,14.00
2018-09-06T04:10:14.363Z,14.10
2018-09-06T04:12:43.087Z,14.00
2018-09-06T04:15:11.936Z,14.10
2018-09-06T04:17:40.633Z,14.10
2018-09-06T04:20:09.429Z,14.10
2018-09-06T04:22:44.751Z,14.10
2018-09-06T04:25:13.605Z,14.00
2018-09-06T04:27:42.399Z,14.00
2018-09-06T04:30:11.051Z,14.10
2018-09-06T04:32:39.724Z,14.10
2018-09-06T04:35:08.516Z,14.10
2018-09-06T04:37:37.159Z,14.20
2018-09-06T04:40:05.958Z,14.10
2018-09-06T04:42:34.671Z,14.00
2018-09-06T04:45:03.526Z,14.00
2018-09-06T04:47:32.197Z,14.00
2018-09-06T04:50:00.842Z,13.90
2018-09-06T04:52:29.484Z,14.00
2018-09-06T04:54:58.084Z,14.00
2018-09-06T04:57:26.944Z,14.10
2018-09-06T04:59:55.969Z,14.10
2018-09-06T05:02:24.666Z,14.20
2018-09-06T05:04:53.376Z,14.30
2018-09-06T05:07:22.032Z,14.30
2018-09-06T05:09:50.652Z,14.40
2018-09-06T05:12:19.251Z,14.50
2018-09-06T05:14:47.885Z,14.70
2018-09-06T05:17:18.023Z,14.80
2018-09-06T05:19:50.042Z,14.90
2018-09-06T05:22:18.669Z,15.00
2018-09-06T05:24:47.517Z,14.90
2018-09-06T05:27:16.303Z,14.80
2018-09-06T05:29:45.046Z,14.70
2018-09-06T05:32:13.826Z,14.60
2018-09-06T05:34:42.456Z,14.60
2018-09-06T05:37:11.387Z,14.60
2018-09-06T05:39:40.086Z,14.70
2018-09-06T05:42:08.720Z,14.80
2018-09-06T05:44:37.452Z,15.10
2018-09-06T05:47:06.391Z,15.30
2018-09-06T05:49:35.273Z,15.40
2018-09-06T05:52:04.444Z,15.60
2018-09-06T05:54:33.231Z,15.80
2018-09-06T05:57:01.986Z,16.10
2018-09-06T05:59:30.778Z,16.20
2018-09-06T06:01:59.559Z,16.20
2018-09-06T06:04:28.313Z,16.30
2018-09-06T06:06:57.007Z,16.60
2018-09-06T06:09:25.639Z,16.70
2018-09-06T06:11:54.544Z,17.00
2018-09-06T06:14:23.246Z,17.10
2018-09-06T06:16:52.154Z,17.10
2018-09-06T06:19:20.914Z,17.10
2018-09-06T06:21:49.679Z,17.20
2018-09-06T06:24:18.393Z,17.20
2018-09-06T06:26:47.159Z,17.50
2018-09-06T06:29:15.799Z,17.80
2018-09-06T06:31:44.442Z,18.20
2018-09-06T06:34:13.144Z,18.40
2018-09-06T06:36:41.951Z,18.90
2018-09-06T06:39:12.348Z,19.20
2018-09-06T06:41:41.226Z,19.10
2018-09-06T06:44:10.446Z,19.40
2018-09-06T06:46:39.189Z,19.40
2018-09-06T06:49:08.050Z,19.50
2018-09-06T06:51:36.751Z,19.80
2018-09-06T06:54:05.670Z,19.80
2018-09-06T06:56:34.513Z,19.80
2018-09-06T06:59:03.426Z,20.00
2018-09-06T07:01:32.491Z,20.10
2018-09-06T07:04:01.229Z,20.30
2018-09-06T07:06:29.986Z,20.50
2018-09-06T07:08:58.703Z,20.70
2018-09-06T07:11:27.496Z,21.00
2018-09-06T07:13:56.249Z,21.10
2018-09-06T07:16:25.126Z,21.20
2018-09-06T07:18:53.878Z,21.30
2018-09-06T07:21:22.644Z,21.40
2018-09-06T07:23:51.335Z,21.80
2018-09-06T07:26:20.016Z,21.90
2018-09-06T07:28:48.658Z,21.80
2018-09-06T07:31:17.376Z,21.70
2018-09-06T07:33:46.053Z,21.90
2018-09-06T07:36:14.846Z,22.40
2018-09-06T07:38:43.651Z,22.80
2018-09-06T07:41:12.438Z,22.90
2018-09-06T07:43:41.336Z,23.30
2018-09-06T07:46:09.991Z,23.70
2018-09-06T07:48:38.651Z,24.00
2018-09-06T07:51:07.299Z,24.20
2018-09-06T07:53:35.903Z,24.30
2018-09-06T07:56:04.629Z,24.50
2018-09-06T07:58:33.288Z,24.60
2018-09-06T08:01:01.956Z,24.80
2018-09-06T08:03:30.694Z,25.10
2018-09-06T08:05:59.411Z,25.10
2018-09-06T08:08:28.189Z,25.30
2018-09-06T08:10:57.301Z,25.50
2018-09-06T08:13:26.077Z,25.70
2018-09-06T08:15:54.846Z,25.90
2018-09-06T08:18:23.645Z,26.10
2018-09-06T08:20:52.559Z,26.30
2018-09-06T08:23:21.313Z,26.40
2018-09-06T08:25:50.091Z,26.70
2018-09-06T08:28:19.543Z,26.80
2018-09-06T08:30:49.368Z,26.80
2018-09-06T08:33:18.556Z,26.70
2018-09-06T08:35:47.419Z,26.70
2018-09-06T08:38:16.219Z,27.30
2018-09-06T08:40:45.099Z,27.40
2018-09-06T08:43:14.840Z,27.60
2018-09-06T08:45:43.690Z,27.50
2018-09-06T08:48:12.470Z,27.50
2018-09-06T08:50:41.255Z,27.70
2018-09-06T08:53:10.019Z,28.10
2018-09-06T08:55:38.856Z,28.40
2018-09-06T08:58:07.956Z,28.70
2018-09-06T09:00:40.068Z,28.90
2018-09-06T09:03:09.824Z,29.20
2018-09-06T09:05:38.734Z,29.20
2018-09-06T09:08:07.526Z,28.70
2018-09-06T09:10:36.193Z,29.00
2018-09-06T09:13:04.996Z,28.90
2018-09-06T09:15:33.794Z,29.00
2018-09-06T09:18:02.665Z,28.90
2018-09-06T09:20:31.476Z,28.70
2018-09-06T09:23:00.236Z,28.60
2018-09-06T09:25:29.064Z,28.80
2018-09-06T09:27:57.861Z,29.00
2018-09-06T09:30:26.819Z,29.40
2018-09-06T09:32:55.889Z,29.80
2018-09-06T09:35:24.679Z,30.50
2018-09-06T09:37:53.464Z,30.10
2018-09-06T09:40:22.322Z,29.80
2018-09-06T09:42:52.165Z,29.90
2018-09-06T09:45:21.399Z,29.90
2018-09-06T09:47:51.165Z,29.70
2018-09-06T09:52:48.151Z,30.40
2018-09-06T09:55:16.951Z,30.90
2018-09-06T09:57:45.769Z,31.10
2018-09-06T10:00:15.049Z,30.80
2018-09-06T10:02:49.424Z,30.50
2018-09-06T10:05:24.412Z,30.00
2018-09-06T10:07:56.100Z,30.30
2018-09-06T10:10:25.631Z,30.30
2018-09-06T10:12:55.666Z,31.00
2018-09-06T10:15:25.677Z,31.20
2018-09-06T10:17:54.712Z,31.90
2018-09-06T10:20:23.901Z,32.40
2018-09-06T10:22:53.718Z,32.10
2018-09-06T10:25:22.741Z,31.70
2018-09-06T10:27:51.705Z,31.30
2018-09-06T10:30:21.329Z,31.10
2018-09-06T10:32:50.264Z,31.30
2018-09-06T10:35:19.115Z,31.60
2018-09-06T10:37:49.060Z,32.30
2018-09-06T10:40:33.227Z,32.40
2018-09-06T10:43:02.094Z,32.30
2018-09-06T10:45:31.466Z,32.90
2018-09-06T10:48:01.867Z,33.30
2018-09-06T10:50:30.621Z,32.90
2018-09-06T10:52:59.359Z,32.70
2018-09-06T10:55:28.191Z,32.00
2018-09-06T10:57:56.945Z,32.30
2018-09-06T11:00:27.509Z,33.10
2018-09-06T11:02:57.479Z,32.90
2018-09-06T11:05:26.472Z,33.20
2018-09-06T11:07:55.396Z,33.00
2018-09-06T11:10:24.292Z,32.90
2018-09-06T11:12:53.049Z,32.60
2018-09-06T11:15:21.779Z,33.00
2018-09-06T11:17:50.621Z,33.10
2018-09-06T11:20:19.404Z,32.40
2018-09-06T11:22:49.109Z,32.00
2018-09-06T11:25:17.929Z,32.30
2018-09-06T11:27:46.889Z,32.40
2018-09-06T11:30:16.483Z,32.90
2018-09-06T11:32:45.793Z,33.10
2018-09-06T11:35:14.691Z,32.40
2018-09-06T11:37:43.659Z,32.60
2018-09-06T11:40:12.584Z,33.10
2018-09-06T11:42:41.509Z,33.80
2018-09-06T11:45:10.426Z,33.90
2018-09-06T11:47:39.985Z,33.70
2018-09-06T11:50:08.858Z,33.10
2018-09-06T11:52:37.742Z,33.20
2018-09-06T11:55:07.551Z,32.80
2018-09-06T11:57:36.677Z,33.70
2018-09-06T12:00:06.358Z,33.30
2018-09-06T12:02:35.181Z,33.10
2018-09-06T12:05:04.412Z,33.10
2018-09-06T12:07:33.306Z,32.30
2018-09-06T12:10:02.159Z,32.00
2018-09-06T12:12:31.034Z,32.40
2018-09-06T12:14:59.934Z,32.00
2018-09-06T12:17:29.266Z,31.90
2018-09-06T12:19:58.350Z,32.40
2018-09-06T12:22:27.215Z,32.10
2018-09-06T12:24:56.203Z,31.20
2018-09-06T12:27:25.144Z,30.50
2018-09-06T12:29:54.252Z,30.60
2018-09-06T12:32:23.362Z,31.50
2018-09-06T12:34:52.519Z,31.80
2018-09-06T12:37:22.484Z,31.80
2018-09-06T12:39:51.417Z,31.50
2018-09-06T12:42:20.318Z,31.90
2018-09-06T12:44:49.206Z,32.60
2018-09-06T12:47:18.617Z,32.60
2018-09-06T12:49:47.447Z,31.90
2018-09-06T12:52:16.209Z,31.20
2018-09-06T12:54:45.024Z,31.10
2018-09-06T12:57:13.825Z,31.30
2018-09-06T12:59:42.594Z,31.50
2018-09-06T13:02:11.461Z,31.30
2018-09-06T13:04:40.401Z,31.80
2018-09-06T13:07:09.330Z,31.60
2018-09-06T13:09:38.282Z,31.30
2018-09-06T13:12:08.556Z,31.10
2018-09-06T13:14:37.614Z,31.10
2018-09-06T13:17:06.600Z,31.30
2018-09-06T13:19:35.621Z,31.80
2018-09-06T13:22:04.572Z,32.80
2018-09-06T13:24:33.830Z,33.40
2018-09-06T13:27:02.713Z,33.70
2018-09-06T13:29:31.712Z,33.50
2018-09-06T13:32:00.603Z,33.60
2018-09-06T13:34:29.521Z,33.10
2018-09-06T13:36:58.559Z,33.10
2018-09-06T13:39:28.226Z,33.40
2018-09-06T13:41:57.356Z,33.80
2018-09-06T13:44:26.297Z,33.30
2018-09-06T13:46:55.178Z,33.00
2018-09-06T13:49:24.083Z,33.20
2018-09-06T13:51:52.903Z,31.90
2018-09-06T13:54:21.794Z,32.10
2018-09-06T13:56:50.658Z,32.30
2018-09-06T13:59:19.631Z,32.10
2018-09-06T14:01:48.690Z,32.20
2018-09-06T14:04:17.562Z,32.40
2018-09-06T14:06:46.318Z,31.90
2018-09-06T14:09:15.047Z,31.60
2018-09-06T14:11:43.803Z,31.30
2018-09-06T14:14:13.310Z,31.50
2018-09-06T14:16:43.125Z,32.00
2018-09-06T14:19:11.957Z,32.10
2018-09-06T14:21:40.779Z,32.60
2018-09-06T14:24:10.088Z,33.30
2018-09-06T14:26:38.911Z,33.40
2018-09-06T14:29:07.724Z,33.80
2018-09-06T14:31:37.448Z,33.90
2018-09-06T14:34:06.801Z,33.90
2018-09-06T14:36:36.368Z,33.60
2018-09-06T14:39:07.496Z,32.40
2018-09-06T14:41:36.319Z,31.70
2018-09-06T14:44:05.194Z,31.90
2018-09-06T14:46:34.826Z,32.10
2018-09-06T14:49:03.747Z,32.70
2018-09-06T14:51:33.751Z,33.20
2018-09-06T14:54:03.429Z,33.30
2018-09-06T14:56:32.606Z,33.40
2018-09-06T14:59:01.996Z,32.90
2018-09-06T15:01:30.767Z,31.70
2018-09-06T15:03:59.420Z,31.20
2018-09-06T15:06:28.814Z,31.00
2018-09-06T15:08:57.656Z,31.00
2018-09-06T15:11:26.731Z,30.50
2018-09-06T15:13:55.711Z,30.40
2018-09-06T15:16:24.474Z,30.40
2018-09-06T15:18:57.049Z,30.70
2018-09-06T15:21:25.852Z,31.40
2018-09-06T15:23:54.583Z,31.40
2018-09-06T15:26:23.476Z,31.60
2018-09-06T15:28:52.363Z,31.50
2018-09-06T15:31:21.176Z,31.50
2018-09-06T15:33:49.997Z,31.10
2018-09-06T15:36:18.768Z,30.90
2018-09-06T15:38:47.518Z,30.20
2018-09-06T15:41:16.271Z,30.10
2018-09-06T15:43:44.973Z,30.00
2018-09-06T15:46:13.771Z,29.60
2018-09-06T15:48:42.438Z,29.40
2018-09-06T15:51:11.163Z,29.50
2018-09-06T15:53:39.916Z,29.40
2018-09-06T15:56:08.706Z,29.30
2018-09-06T15:58:37.504Z,29.10
2018-09-06T16:01:06.244Z,28.90
2018-09-06T16:03:34.993Z,28.60
2018-09-06T16:06:04.731Z,28.40
2018-09-06T16:08:33.484Z,28.40
2018-09-06T16:11:02.372Z,28.20
2018-09-06T16:13:31.332Z,27.90
2018-09-06T16:16:00.164Z,27.60
2018-09-06T16:18:30.136Z,27.10
2018-09-06T16:20:59.130Z,27.00
2018-09-06T16:23:28.156Z,26.70
2018-09-06T16:25:56.939Z,26.50
2018-09-06T16:28:25.859Z,26.40
2018-09-06T16:30:54.879Z,26.20
2018-09-06T16:33:23.764Z,26.10
2018-09-06T16:35:52.723Z,25.90
2018-09-06T16:38:21.604Z,25.90
2018-09-06T16:40:50.497Z,25.70
2018-09-06T16:43:19.327Z,25.70
2018-09-06T16:45:48.379Z,25.50
2018-09-06T16:48:17.209Z,25.50
2018-09-06T16:50:46.124Z,25.40
2018-09-06T16:53:15.011Z,25.30
2018-09-06T16:55:44.009Z,25.20
2018-09-06T16:58:12.975Z,25.10
2018-09-06T17:00:42.850Z,25.10
2018-09-06T17:03:12.817Z,25.10
2018-09-06T17:05:41.596Z,24.80
2018-09-06T17:08:10.346Z,24.70
2018-09-06T17:10:39.605Z,24.60
2018-09-06T17:13:08.566Z,24.50
2018-09-06T17:15:37.366Z,24.40
2018-09-06T17:18:06.092Z,24.40
2018-09-06T17:20:34.734Z,24.30
2018-09-06T17:23:03.454Z,24.20
2018-09-06T17:25:32.211Z,24.10
2018-09-06T17:28:01.079Z,23.90
2018-09-06T17:30:29.995Z,23.80
2018-09-06T17:32:58.880Z,23.70
2018-09-06T17:35:28.434Z,23.60
2018-09-06T17:37:57.747Z,23.50
2018-09-06T17:40:26.466Z,23.40
2018-09-06T17:42:55.192Z,23.30
2018-09-06T17:45:24.558Z,23.20
2018-09-06T17:47:53.318Z,23.20
2018-09-06T17:50:22.814Z,23.20
2018-09-06T17:52:51.680Z,23.20
2018-09-06T17:55:20.621Z,23.20
2018-09-06T17:57:49.356Z,23.20
2018-09-06T18:00:18.291Z,23.10
2018-09-06T18:02:47.209Z,23.00
2018-09-06T18:05:16.884Z,23.00
2018-09-06T18:07:45.698Z,23.00
2018-09-06T18:10:14.679Z,23.10
2018-09-06T18:12:43.547Z,23.10
2018-09-06T18:15:13.242Z,23.00
2018-09-06T18:17:42.140Z,23.00
2018-09-06T18:20:10.838Z,23.00
2018-09-06T18:22:39.661Z,22.90
2018-09-06T18:25:08.576Z,22.80
2018-09-06T18:27:37.620Z,22.80
2018-09-06T18:30:06.757Z,22.70
2018-09-06T18:32:35.904Z,22.60
2018-09-06T18:35:05.163Z,22.50
2018-09-06T18:37:33.927Z,22.40
2018-09-06T18:40:02.862Z,22.30
2018-09-06T18:42:32.157Z,22.20
2018-09-06T18:45:01.079Z,22.30
2018-09-06T18:47:29.944Z,22.30
2018-09-06T18:49:58.786Z,22.30
2018-09-06T18:52:27.635Z,22.30
2018-09-06T18:54:56.558Z,22.30
2018-09-06T18:57:25.511Z,22.30
2018-09-06T18:59:54.463Z,22.20
2018-09-06T19:02:29.211Z,22.00
2018-09-06T19:04:59.779Z,21.90
2018-09-06T19:07:28.583Z,21.80
2018-09-06T19:09:57.738Z,21.70
2018-09-06T19:12:26.580Z,21.70
2018-09-06T19:14:55.373Z,21.70
2018-09-06T19:17:24.063Z,21.80
2018-09-06T19:19:52.791Z,21.70
2018-09-06T19:22:21.496Z,21.70
2018-09-06T19:24:50.525Z,21.70
2018-09-06T19:27:19.446Z,21.50
2018-09-06T19:29:48.343Z,21.40
2018-09-06T19:32:18.588Z,21.30
2018-09-06T19:34:48.383Z,21.20
2018-09-06T19:37:18.316Z,21.10
2018-09-06T19:39:47.378Z,21.30
2018-09-06T19:42:16.446Z,21.30
2018-09-06T19:44:45.324Z,21.40
2018-09-06T19:47:15.787Z,21.50
2018-09-06T19:49:45.808Z,21.50
2018-09-06T19:52:14.661Z,21.50
2018-09-06T19:54:43.524Z,21.60
2018-09-06T19:57:12.393Z,21.60
2018-09-06T19:59:41.824Z,21.60
2018-09-06T20:02:11.424Z,21.40
2018-09-06T20:04:40.246Z,21.20
2018-09-06T20:07:09.065Z,21.20
2018-09-06T20:09:38.791Z,21.30
2018-09-06T20:12:07.764Z,21.50
2018-09-06T20:14:36.649Z,21.60
2018-09-06T20:17:05.572Z,21.60
2018-09-06T20:19:34.463Z,21.50
2018-09-06T20:22:03.387Z,21.40
2018-09-06T20:24:32.256Z,21.20
2018-09-06T20:27:00.904Z,21.10
2018-09-06T20:29:29.664Z,21.00
2018-09-06T20:31:58.765Z,21.00
2018-09-06T20:34:27.746Z,21.10
2018-09-06T20:36:56.877Z,21.10
2018-09-06T20:39:25.599Z,21.10
2018-09-06T20:41:55.300Z,21.00
2018-09-06T20:44:24.028Z,21.00
2018-09-06T20:46:52.745Z,21.00
2018-09-06T20:49:21.782Z,20.90
2018-09-06T20:51:51.534Z,20.90
2018-09-06T20:54:20.564Z,20.80
2018-09-06T20:56:49.426Z,20.70
2018-09-06T20:59:18.307Z,20.60
2018-09-06T21:01:47.205Z,20.60
2018-09-06T21:04:16.118Z,20.60
2018-09-06T21:06:45.136Z,20.60
2018-09-06T21:09:13.953Z,20.60
2018-09-06T21:11:42.838Z,20.50
2018-09-06T21:14:11.696Z,20.40
2018-09-06T21:16:40.541Z,20.40
2018-09-06T21:19:09.401Z,20.60
2018-09-06T21:21:38.278Z,20.60
2018-09-06T21:24:07.131Z,20.60
2018-09-06T21:26:36.661Z,20.60
2018-09-06T21:29:05.567Z,20.60
2018-09-06T21:31:34.288Z,20.40
2018-09-06T21:34:03.305Z,20.60
2018-09-06T21:36:32.074Z,20.60
2018-09-06T21:39:00.766Z,20.90
2018-09-06T21:41:29.536Z,21.00
2018-09-06T21:43:58.312Z,21.10
2018-09-06T21:46:27.303Z,21.20
2018-09-06T21:48:56.638Z,21.10
2018-09-06T21:51:25.550Z,20.80
2018-09-06T21:53:54.433Z,20.60
2018-09-06T21:56:23.318Z,20.30
2018-09-06T21:58:52.514Z,20.20
2018-09-06T22:01:22.913Z,20.10
2018-09-06T22:03:57.546Z,20.10
2018-09-06T22:06:26.461Z,20.00
2018-09-06T22:08:55.976Z,20.00
2018-09-06T22:11:24.823Z,20.00
2018-09-06T22:13:54.263Z,20.10
2018-09-06T22:16:23.118Z,20.20
2018-09-06T22:18:52.038Z,20.20
2018-09-06T22:21:20.870Z,20.10
2018-09-06T22:23:49.668Z,20.10
2018-09-06T22:26:18.457Z,20.20
2018-09-06T22:28:47.855Z,20.20
2018-09-06T22:31:16.688Z,20.30
2018-09-06T22:33:45.453Z,20.20
2018-09-06T22:36:14.163Z,20.10
2018-09-06T22:38:43.478Z,20.00
2018-09-06T22:41:12.183Z,19.90
2018-09-06T22:43:40.823Z,19.80
2018-09-06T22:46:09.553Z,19.70
2018-09-06T22:48:38.250Z,19.70
2018-09-06T22:51:07.160Z,19.60
2018-09-06T22:53:36.925Z,19.60
2018-09-06T22:56:05.628Z,19.50
2018-09-06T22:58:34.358Z,19.50
2018-09-06T23:01:04.271Z,19.50
2018-09-06T23:03:38.371Z,19.40
2018-09-06T23:06:07.456Z,19.50
2018-09-06T23:08:36.479Z,19.60
2018-09-06T23:11:05.374Z,19.60
2018-09-06T23:13:34.086Z,19.60
2018-09-06T23:16:02.763Z,19.60
2018-09-06T23:18:31.451Z,19.60
2018-09-06T23:21:00.236Z,19.50
2018-09-06T23:23:29.139Z,19.60
2018-09-06T23:25:58.036Z,19.30
2018-09-06T23:28:26.831Z,19.30
2018-09-06T23:30:55.548Z,19.30
2018-09-06T23:33:24.348Z,19.30
2018-09-06T23:35:53.108Z,19.40
2018-09-06T23:38:21.916Z,19.30
2018-09-06T23:40:56.518Z,19.30
2018-09-06T23:43:27.073Z,19.40
2018-09-06T23:45:56.971Z,19.40
2018-09-06T23:48:27.836Z,19.40
2018-09-06T23:50:57.173Z,19.40
2018-09-06T23:53:26.783Z,19.40
2018-09-06T23:55:55.623Z,19.40
2018-09-06T23:58:24.583Z,19.40
